sensor_id;sensor_type;location;lat;lon;timestamp;pressure;altitude;pressure_sealevel;temperature;humidity
30081;BME280;16902;50.816;12.828;2022-12-20T00:01:50;98260.00;;;-0.76;100.00
30081;BME280;16902;50.816;12.828;2022-12-20T00:06:52;98253.53;;;-0.82;100.00
30081;BME280;16902;50.816;12.828;2022-12-20T00:11:54;98255.06;;;-0.79;100.00
30081;BME280;16902;50.816;12.828;2022-12-20T00:16:56;98236.94;;;-0.89;100.00
30081;BME280;16902;50.816;12.828;2022-12-20T00:21:58;98244.59;;;-0.89;100.00
30081;BME280;16902;50.816;12.828;2022-12-20T00:27:00;98234.44;;;-0.76;100.00
30081;BME280;16902;50.816;12.828;2022-12-20T00:32:01;98224.34;;;-0.65;100.00
30081;BME280;16902;50.816;12.828;2022-12-20T00:37:04;98213.56;;;-0.43;100.00
30081;BME280;16902;50.816;12.828;2022-12-20T00:42:05;98229.44;;;-0.25;100.00
30081;BME280;16902;50.816;12.828;2022-12-20T00:47:07;98213.88;;;-0.22;100.00
30081;BME280;16902;50.816;12.828;2022-12-20T00:52:09;98222.50;;;-0.23;100.00
30081;BME280;16902;50.816;12.828;2022-12-20T00:57:12;98217.97;;;-0.32;100.00
30081;BME280;16902;50.816;12.828;2022-12-20T01:02:14;98220.31;;;-0.29;100.00
30081;BME280;16902;50.816;12.828;2022-12-20T01:07:16;98220.53;;;-0.19;100.00
30081;BME280;16902;50.816;12.828;2022-12-20T01:12:18;98221.78;;;0.01;100.00
30081;BME280;16902;50.816;12.828;2022-12-20T01:17:20;98209.91;;;-0.01;100.00
30081;BME280;16902;50.816;12.828;2022-12-20T01:22:22;98224.44;;;-0.01;100.00
30081;BME280;16902;50.816;12.828;2022-12-20T01:27:24;98211.13;;;0.07;100.00
30081;BME280;16902;50.816;12.828;2022-12-20T01:32:26;98203.56;;;0.05;100.00
30081;BME280;16902;50.816;12.828;2022-12-20T01:37:27;98215.22;;;0.09;100.00
30081;BME280;16902;50.816;12.828;2022-12-20T01:42:30;98220.34;;;0.09;100.00
30081;BME280;16902;50.816;12.828;2022-12-20T01:47:33;98204.78;;;0.12;100.00
30081;BME280;16902;50.816;12.828;2022-12-20T01:52:42;98212.38;;;0.01;100.00
30081;BME280;16902;50.816;12.828;2022-12-20T01:57:53;98209.50;;;-0.07;100.00
30081;BME280;16902;50.816;12.828;2022-12-20T02:03:00;98221.38;;;-0.06;100.00
30081;BME280;16902;50.816;12.828;2022-12-20T02:08:04;98204.59;;;0.03;100.00
30081;BME280;16902;50.816;12.828;2022-12-20T02:13:11;98196.06;;;0.28;100.00
30081;BME280;16902;50.816;12.828;2022-12-20T02:18:26;98198.00;;;0.49;100.00
30081;BME280;16902;50.816;12.828;2022-12-20T02:29:23;98188.56;;;0.50;100.00
30081;BME280;16902;50.816;12.828;2022-12-20T02:34:31;98182.19;;;0.56;100.00
30081;BME280;16902;50.816;12.828;2022-12-20T02:39:35;98183.72;;;0.58;100.00
30081;BME280;16902;50.816;12.828;2022-12-20T02:44:43;98179.50;;;0.57;100.00
30081;BME280;16902;50.816;12.828;2022-12-20T02:50:07;98174.38;;;0.57;100.00
30081;BME280;16902;50.816;12.828;2022-12-20T02:55:10;98178.19;;;0.51;100.00
30081;BME280;16902;50.816;12.828;2022-12-20T03:00:15;98173.69;;;0.55;100.00
30081;BME280;16902;50.816;12.828;2022-12-20T03:05:21;98163.25;;;0.58;100.00
30081;BME280;16902;50.816;12.828;2022-12-20T03:10:24;98164.31;;;0.67;100.00
30081;BME280;16902;50.816;12.828;2022-12-20T03:15:27;98159.00;;;0.94;100.00
30081;BME280;16902;50.816;12.828;2022-12-20T03:20:31;98157.41;;;1.04;100.00
30081;BME280;16902;50.816;12.828;2022-12-20T03:25:33;98161.59;;;1.05;100.00
30081;BME280;16902;50.816;12.828;2022-12-20T03:30:36;98162.56;;;1.15;100.00
30081;BME280;16902;50.816;12.828;2022-12-20T03:35:39;98163.34;;;1.05;100.00
30081;BME280;16902;50.816;12.828;2022-12-20T03:40:42;98158.69;;;1.10;100.00
30081;BME280;16902;50.816;12.828;2022-12-20T03:45:47;98151.88;;;1.21;100.00
30081;BME280;16902;50.816;12.828;2022-12-20T03:50:49;98149.31;;;1.21;100.00
30081;BME280;16902;50.816;12.828;2022-12-20T03:55:50;98144.19;;;1.21;100.00
30081;BME280;16902;50.816;12.828;2022-12-20T04:00:52;98142.00;;;1.39;100.00
30081;BME280;16902;50.816;12.828;2022-12-20T04:06:15;98142.94;;;1.38;100.00
30081;BME280;16902;50.816;12.828;2022-12-20T04:11:17;98145.31;;;1.41;100.00
30081;BME280;16902;50.816;12.828;2022-12-20T04:16:41;98133.88;;;1.45;100.00
30081;BME280;16902;50.816;12.828;2022-12-20T04:21:44;98131.91;;;1.49;100.00
30081;BME280;16902;50.816;12.828;2022-12-20T04:26:47;98127.50;;;1.62;100.00
30081;BME280;16902;50.816;12.828;2022-12-20T04:31:51;98128.44;;;1.61;100.00
30081;BME280;16902;50.816;12.828;2022-12-20T04:36:53;98120.00;;;1.59;100.00
30081;BME280;16902;50.816;12.828;2022-12-20T04:42:10;98121.88;;;1.57;100.00
30081;BME280;16902;50.816;12.828;2022-12-20T04:47:12;98122.97;;;1.77;100.00
30081;BME280;16902;50.816;12.828;2022-12-20T04:52:14;98111.44;;;1.94;100.00
30081;BME280;16902;50.816;12.828;2022-12-20T04:57:34;98100.78;;;1.76;100.00
30081;BME280;16902;50.816;12.828;2022-12-20T05:02:38;98092.50;;;1.72;100.00
30081;BME280;16902;50.816;12.828;2022-12-20T05:07:44;98081.66;;;1.69;100.00
30081;BME280;16902;50.816;12.828;2022-12-20T05:12:46;98085.63;;;1.73;100.00
30081;BME280;16902;50.816;12.828;2022-12-20T05:17:57;98089.00;;;1.62;100.00
30081;BME280;16902;50.816;12.828;2022-12-20T05:23:09;98078.16;;;1.70;100.00
30081;BME280;16902;50.816;12.828;2022-12-20T05:28:40;98087.63;;;1.69;100.00
30081;BME280;16902;50.816;12.828;2022-12-20T05:33:42;98075.69;;;1.68;100.00
30081;BME280;16902;50.816;12.828;2022-12-20T05:38:45;98049.09;;;1.58;100.00
30081;BME280;16902;50.816;12.828;2022-12-20T05:43:51;98066.84;;;1.61;100.00
30081;BME280;16902;50.816;12.828;2022-12-20T05:48:53;98075.69;;;1.68;100.00
30081;BME280;16902;50.816;12.828;2022-12-20T05:53:55;98072.44;;;1.77;100.00
30081;BME280;16902;50.816;12.828;2022-12-20T05:59:13;98070.81;;;1.65;100.00
30081;BME280;16902;50.816;12.828;2022-12-20T06:04:17;98077.09;;;1.50;100.00
30081;BME280;16902;50.816;12.828;2022-12-20T06:09:20;98074.16;;;1.43;100.00
30081;BME280;16902;50.816;12.828;2022-12-20T06:14:29;98072.53;;;1.42;100.00
30081;BME280;16902;50.816;12.828;2022-12-20T06:19:31;98075.78;;;1.44;100.00
30081;BME280;16902;50.816;12.828;2022-12-20T06:24:34;98078.25;;;1.46;100.00
30081;BME280;16902;50.816;12.828;2022-12-20T06:29:37;98074.88;;;1.57;100.00
30081;BME280;16902;50.816;12.828;2022-12-20T06:34:43;98073.56;;;1.40;100.00
30081;BME280;16902;50.816;12.828;2022-12-20T06:39:45;98072.66;;;1.41;100.00
30081;BME280;16902;50.816;12.828;2022-12-20T06:44:48;98072.28;;;1.23;100.00
30081;BME280;16902;50.816;12.828;2022-12-20T06:49:50;98058.72;;;1.21;100.00
30081;BME280;16902;50.816;12.828;2022-12-20T06:54:55;98053.50;;;1.22;100.00
30081;BME280;16902;50.816;12.828;2022-12-20T06:59:58;98057.50;;;1.49;100.00
30081;BME280;16902;50.816;12.828;2022-12-20T07:04:59;98060.53;;;1.54;100.00
30081;BME280;16902;50.816;12.828;2022-12-20T07:10:01;98062.06;;;1.57;100.00
30081;BME280;16902;50.816;12.828;2022-12-20T07:15:04;98070.69;;;1.56;100.00
30081;BME280;16902;50.816;12.828;2022-12-20T07:20:06;98052.72;;;1.78;100.00
30081;BME280;16902;50.816;12.828;2022-12-20T07:25:14;98044.56;;;1.73;100.00
30081;BME280;16902;50.816;12.828;2022-12-20T07:30:18;98034.19;;;1.63;100.00
30081;BME280;16902;50.816;12.828;2022-12-20T07:35:20;98045.63;;;1.70;100.00
30081;BME280;16902;50.816;12.828;2022-12-20T07:40:21;98042.34;;;1.79;100.00
30081;BME280;16902;50.816;12.828;2022-12-20T07:45:25;98042.91;;;1.94;100.00
30081;BME280;16902;50.816;12.828;2022-12-20T07:50:27;98039.63;;;1.92;100.00
30081;BME280;16902;50.816;12.828;2022-12-20T07:55:30;98041.38;;;2.03;100.00
30081;BME280;16902;50.816;12.828;2022-12-20T08:00:32;98043.22;;;2.12;100.00
30081;BME280;16902;50.816;12.828;2022-12-20T08:05:36;98044.03;;;2.24;100.00
30081;BME280;16902;50.816;12.828;2022-12-20T08:10:39;98025.75;;;2.49;100.00
30081;BME280;16902;50.816;12.828;2022-12-20T08:15:42;98040.72;;;2.76;100.00
30081;BME280;16902;50.816;12.828;2022-12-20T08:20:43;98040.41;;;2.91;100.00
30081;BME280;16902;50.816;12.828;2022-12-20T08:25:45;98042.66;;;2.84;100.00
30081;BME280;16902;50.816;12.828;2022-12-20T08:30:47;98045.25;;;3.05;100.00
30081;BME280;16902;50.816;12.828;2022-12-20T08:35:56;98032.25;;;3.27;100.00
30081;BME280;16902;50.816;12.828;2022-12-20T08:41:06;98042.25;;;3.51;100.00
30081;BME280;16902;50.816;12.828;2022-12-20T08:46:09;98043.28;;;3.70;100.00
30081;BME280;16902;50.816;12.828;2022-12-20T08:51:12;98038.44;;;3.76;100.00
30081;BME280;16902;50.816;12.828;2022-12-20T08:56:16;98035.25;;;3.94;100.00
30081;BME280;16902;50.816;12.828;2022-12-20T09:01:19;98030.94;;;4.04;100.00
30081;BME280;16902;50.816;12.828;2022-12-20T09:06:22;98039.25;;;4.17;100.00
30081;BME280;16902;50.816;12.828;2022-12-20T09:11:25;98040.75;;;4.39;100.00
30081;BME280;16902;50.816;12.828;2022-12-20T09:16:30;98033.84;;;4.39;100.00
30081;BME280;16902;50.816;12.828;2022-12-20T09:21:33;98025.28;;;4.29;100.00
30081;BME280;16902;50.816;12.828;2022-12-20T09:26:35;98042.91;;;4.24;100.00
30081;BME280;16902;50.816;12.828;2022-12-20T09:31:36;98047.13;;;4.35;100.00
30081;BME280;16902;50.816;12.828;2022-12-20T09:36:38;98041.75;;;4.57;100.00
30081;BME280;16902;50.816;12.828;2022-12-20T09:41:42;98044.31;;;4.86;100.00
30081;BME280;16902;50.816;12.828;2022-12-20T09:46:52;98042.53;;;4.97;100.00
30081;BME280;16902;50.816;12.828;2022-12-20T10:02:39;98033.75;;;4.70;100.00
30081;BME280;16902;50.816;12.828;2022-12-20T10:08:52;98033.44;;;4.63;100.00
30081;BME280;16902;50.816;12.828;2022-12-20T10:24:03;98014.59;;;4.44;100.00
30081;BME280;16902;50.816;12.828;2022-12-20T10:29:05;98012.41;;;4.39;100.00
30081;BME280;16902;50.816;12.828;2022-12-20T10:34:08;97999.66;;;4.28;100.00
30081;BME280;16902;50.816;12.828;2022-12-20T10:39:09;97994.78;;;4.54;100.00
30081;BME280;16902;50.816;12.828;2022-12-20T10:44:23;97999.78;;;4.94;100.00
30081;BME280;16902;50.816;12.828;2022-12-20T10:54:45;97961.13;;;5.59;100.00
30081;BME280;16902;50.816;12.828;2022-12-20T10:59:55;97952.16;;;5.63;100.00
30081;BME280;16902;50.816;12.828;2022-12-20T11:10:23;97935.31;;;5.59;100.00
30081;BME280;16902;50.816;12.828;2022-12-20T11:15:28;97929.72;;;6.09;100.00
30081;BME280;16902;50.816;12.828;2022-12-20T11:21:03;97928.69;;;6.02;100.00
30081;BME280;16902;50.816;12.828;2022-12-20T11:31:48;97913.50;;;5.89;100.00
30081;BME280;16902;50.816;12.828;2022-12-20T11:53:27;97882.69;;;6.93;100.00
30081;BME280;16902;50.816;12.828;2022-12-20T12:04:02;97876.28;;;7.47;100.00
30081;BME280;16902;50.816;12.828;2022-12-20T12:09:36;97860.16;;;7.70;100.00
30081;BME280;16902;50.816;12.828;2022-12-20T12:14:47;97840.94;;;7.89;100.00
30081;BME280;16902;50.816;12.828;2022-12-20T12:19:53;97833.75;;;7.83;100.00
30081;BME280;16902;50.816;12.828;2022-12-20T12:24:59;97841.06;;;7.87;100.00
30081;BME280;16902;50.816;12.828;2022-12-20T12:30:04;97842.38;;;7.99;100.00
30081;BME280;16902;50.816;12.828;2022-12-20T12:45:56;97840.22;;;8.85;100.00
30081;BME280;16902;50.816;12.828;2022-12-20T12:50:59;97836.72;;;8.61;100.00
30081;BME280;16902;50.816;12.828;2022-12-20T13:01:51;97813.88;;;8.08;100.00
30081;BME280;16902;50.816;12.828;2022-12-20T13:07:00;97804.63;;;8.05;100.00
30081;BME280;16902;50.816;12.828;2022-12-20T13:18:00;97805.09;;;7.92;100.00
30081;BME280;16902;50.816;12.828;2022-12-20T13:23:17;97794.41;;;7.87;100.00
30081;BME280;16902;50.816;12.828;2022-12-20T13:33:38;97782.91;;;8.14;100.00
30081;BME280;16902;50.816;12.828;2022-12-20T13:43:50;97794.91;;;8.32;100.00
30081;BME280;16902;50.816;12.828;2022-12-20T13:48:55;97781.28;;;8.05;100.00
30081;BME280;16902;50.816;12.828;2022-12-20T13:54:00;97774.47;;;7.55;100.00
30081;BME280;16902;50.816;12.828;2022-12-20T14:04:24;97787.78;;;7.02;100.00
30081;BME280;16902;50.816;12.828;2022-12-20T14:14:42;97779.78;;;6.27;100.00
30081;BME280;16902;50.816;12.828;2022-12-20T14:19:44;97761.88;;;6.07;100.00
30081;BME280;16902;50.816;12.828;2022-12-20T14:24:46;97762.47;;;5.83;100.00
30081;BME280;16902;50.816;12.828;2022-12-20T14:29:48;97761.69;;;5.65;100.00
30081;BME280;16902;50.816;12.828;2022-12-20T14:34:50;97756.22;;;5.68;100.00
30081;BME280;16902;50.816;12.828;2022-12-20T14:40:15;97759.97;;;5.20;100.00
30081;BME280;16902;50.816;12.828;2022-12-20T14:45:24;97759.06;;;4.94;100.00
30081;BME280;16902;50.816;12.828;2022-12-20T14:50:36;97746.91;;;4.76;100.00
30081;BME280;16902;50.816;12.828;2022-12-20T14:55:44;97765.59;;;4.60;100.00
30081;BME280;16902;50.816;12.828;2022-12-20T15:06:02;97755.63;;;4.38;100.00
30081;BME280;16902;50.816;12.828;2022-12-20T15:16:29;97769.09;;;4.22;100.00
30081;BME280;16902;50.816;12.828;2022-12-20T15:21:39;97763.22;;;4.30;100.00
30081;BME280;16902;50.816;12.828;2022-12-20T15:26:44;97759.56;;;4.32;100.00
30081;BME280;16902;50.816;12.828;2022-12-20T15:31:47;97753.88;;;4.29;100.00
30081;BME280;16902;50.816;12.828;2022-12-20T15:36:50;97748.91;;;4.18;100.00
30081;BME280;16902;50.816;12.828;2022-12-20T15:41:52;97741.31;;;4.16;100.00
30081;BME280;16902;50.816;12.828;2022-12-20T15:46:53;97732.94;;;4.04;100.00
30081;BME280;16902;50.816;12.828;2022-12-20T15:51:56;97722.22;;;3.99;100.00
30081;BME280;16902;50.816;12.828;2022-12-20T15:57:00;97729.53;;;4.04;100.00
30081;BME280;16902;50.816;12.828;2022-12-20T16:02:18;97724.13;;;3.97;100.00
30081;BME280;16902;50.816;12.828;2022-12-20T16:07:21;97735.78;;;4.01;100.00
30081;BME280;16902;50.816;12.828;2022-12-20T16:12:27;97747.34;;;3.78;100.00
30081;BME280;16902;50.816;12.828;2022-12-20T16:17:30;97736.78;;;3.52;100.00
30081;BME280;16902;50.816;12.828;2022-12-20T16:22:31;97733.53;;;3.30;100.00
30081;BME280;16902;50.816;12.828;2022-12-20T16:27:33;97736.75;;;3.23;100.00
30081;BME280;16902;50.816;12.828;2022-12-20T16:32:35;97738.25;;;3.16;100.00
30081;BME280;16902;50.816;12.828;2022-12-20T16:37:37;97739.91;;;3.36;100.00
30081;BME280;16902;50.816;12.828;2022-12-20T16:42:40;97732.72;;;3.49;100.00
30081;BME280;16902;50.816;12.828;2022-12-20T16:47:42;97717.41;;;3.48;100.00
30081;BME280;16902;50.816;12.828;2022-12-20T16:52:44;97711.84;;;3.43;100.00
30081;BME280;16902;50.816;12.828;2022-12-20T16:57:47;97725.53;;;3.43;100.00
30081;BME280;16902;50.816;12.828;2022-12-20T17:02:50;97721.88;;;3.46;100.00
30081;BME280;16902;50.816;12.828;2022-12-20T17:07:52;97710.22;;;3.42;100.00
30081;BME280;16902;50.816;12.828;2022-12-20T17:12:54;97700.63;;;3.34;100.00
30081;BME280;16902;50.816;12.828;2022-12-20T17:17:56;97694.94;;;3.30;100.00
30081;BME280;16902;50.816;12.828;2022-12-20T17:22:58;97683.44;;;3.25;100.00
30081;BME280;16902;50.816;12.828;2022-12-20T17:28:00;97693.31;;;3.29;100.00
30081;BME280;16902;50.816;12.828;2022-12-20T17:33:02;97696.56;;;3.22;100.00
30081;BME280;16902;50.816;12.828;2022-12-20T17:38:04;97686.13;;;3.23;100.00
30081;BME280;16902;50.816;12.828;2022-12-20T17:43:10;97684.91;;;3.08;100.00
30081;BME280;16902;50.816;12.828;2022-12-20T17:48:12;97683.00;;;3.00;100.00
30081;BME280;16902;50.816;12.828;2022-12-20T17:53:14;97688.44;;;3.07;100.00
30081;BME280;16902;50.816;12.828;2022-12-20T17:58:16;97682.31;;;3.08;100.00
30081;BME280;16902;50.816;12.828;2022-12-20T18:03:18;97669.84;;;2.84;100.00
30081;BME280;16902;50.816;12.828;2022-12-20T18:08:40;97667.41;;;2.82;100.00
30081;BME280;16902;50.816;12.828;2022-12-20T18:13:46;97678.13;;;2.97;100.00
30081;BME280;16902;50.816;12.828;2022-12-20T18:18:48;97667.28;;;2.94;100.00
30081;BME280;16902;50.816;12.828;2022-12-20T18:23:50;97681.09;;;3.02;100.00
30081;BME280;16902;50.816;12.828;2022-12-20T18:28:55;97667.84;;;2.97;100.00
30081;BME280;16902;50.816;12.828;2022-12-20T18:33:58;97668.78;;;2.87;100.00
30081;BME280;16902;50.816;12.828;2022-12-20T18:39:03;97659.97;;;2.89;100.00
30081;BME280;16902;50.816;12.828;2022-12-20T18:44:05;97642.25;;;2.86;100.00
30081;BME280;16902;50.816;12.828;2022-12-20T18:49:08;97656.34;;;2.92;100.00
30081;BME280;16902;50.816;12.828;2022-12-20T18:54:11;97645.34;;;2.80;100.00
30081;BME280;16902;50.816;12.828;2022-12-20T18:59:13;97635.47;;;2.75;100.00
30081;BME280;16902;50.816;12.828;2022-12-20T19:04:15;97621.41;;;2.70;100.00
30081;BME280;16902;50.816;12.828;2022-12-20T19:09:25;97629.41;;;2.76;100.00
30081;BME280;16902;50.816;12.828;2022-12-20T19:14:26;97637.13;;;2.76;100.00
30081;BME280;16902;50.816;12.828;2022-12-20T19:19:28;97645.28;;;2.41;100.00
30081;BME280;16902;50.816;12.828;2022-12-20T19:24:30;97656.47;;;2.30;100.00
30081;BME280;16902;50.816;12.828;2022-12-20T19:29:32;97654.56;;;2.23;100.00
30081;BME280;16902;50.816;12.828;2022-12-20T19:34:34;97654.97;;;2.18;100.00
30081;BME280;16902;50.816;12.828;2022-12-20T19:39:35;97652.41;;;2.28;100.00
30081;BME280;16902;50.816;12.828;2022-12-20T19:44:38;97654.72;;;2.31;100.00
30081;BME280;16902;50.816;12.828;2022-12-20T19:49:39;97659.22;;;2.39;100.00
30081;BME280;16902;50.816;12.828;2022-12-20T19:54:41;97639.47;;;2.39;100.00
30081;BME280;16902;50.816;12.828;2022-12-20T19:59:44;97637.53;;;2.31;100.00
30081;BME280;16902;50.816;12.828;2022-12-20T20:04:54;97618.75;;;2.31;100.00
30081;BME280;16902;50.816;12.828;2022-12-20T20:09:56;97619.72;;;2.40;100.00
30081;BME280;16902;50.816;12.828;2022-12-20T20:14:57;97608.00;;;2.56;100.00
30081;BME280;16902;50.816;12.828;2022-12-20T20:19:59;97622.34;;;2.59;100.00
30081;BME280;16902;50.816;12.828;2022-12-20T20:25:01;97618.16;;;2.58;100.00
30081;BME280;16902;50.816;12.828;2022-12-20T20:30:04;97628.69;;;2.65;100.00
30081;BME280;16902;50.816;12.828;2022-12-20T20:35:08;97616.41;;;2.68;100.00
30081;BME280;16902;50.816;12.828;2022-12-20T20:40:12;97618.84;;;2.79;100.00
30081;BME280;16902;50.816;12.828;2022-12-20T20:45:14;97631.97;;;2.76;100.00
30081;BME280;16902;50.816;12.828;2022-12-20T20:50:17;97638.88;;;2.76;100.00
30081;BME280;16902;50.816;12.828;2022-12-20T20:55:19;97638.03;;;2.75;100.00
30081;BME280;16902;50.816;12.828;2022-12-20T21:00:21;97638.47;;;2.71;100.00
30081;BME280;16902;50.816;12.828;2022-12-20T21:05:23;97628.59;;;2.66;100.00
30081;BME280;16902;50.816;12.828;2022-12-20T21:10:44;97635.59;;;2.74;100.00
30081;BME280;16902;50.816;12.828;2022-12-20T21:15:47;97633.34;;;2.80;100.00
30081;BME280;16902;50.816;12.828;2022-12-20T21:20:48;97622.91;;;2.82;100.00
30081;BME280;16902;50.816;12.828;2022-12-20T21:25:55;97629.41;;;2.86;100.00
30081;BME280;16902;50.816;12.828;2022-12-20T21:31:01;97620.59;;;2.79;100.00
30081;BME280;16902;50.816;12.828;2022-12-20T21:36:07;97611.94;;;2.80;100.00
30081;BME280;16902;50.816;12.828;2022-12-20T21:41:12;97604.75;;;2.74;100.00
30081;BME280;16902;50.816;12.828;2022-12-20T21:46:14;97599.19;;;2.59;100.00
30081;BME280;16902;50.816;12.828;2022-12-20T21:51:19;97589.47;;;2.53;100.00
30081;BME280;16902;50.816;12.828;2022-12-20T21:56:22;97579.75;;;2.56;100.00
30081;BME280;16902;50.816;12.828;2022-12-20T22:01:25;97572.28;;;2.63;100.00
30081;BME280;16902;50.816;12.828;2022-12-20T22:06:28;97586.91;;;2.92;100.00
30081;BME280;16902;50.816;12.828;2022-12-20T22:11:32;97579.88;;;2.84;100.00
30081;BME280;16902;50.816;12.828;2022-12-20T22:16:34;97601.66;;;2.99;100.00
30081;BME280;16902;50.816;12.828;2022-12-20T22:21:36;97613.16;;;3.15;100.00
30081;BME280;16902;50.816;12.828;2022-12-20T22:26:38;97599.47;;;3.14;100.00
30081;BME280;16902;50.816;12.828;2022-12-20T22:31:41;97609.50;;;2.98;100.00
30081;BME280;16902;50.816;12.828;2022-12-20T22:36:43;97598.81;;;2.93;100.00
30081;BME280;16902;50.816;12.828;2022-12-20T22:41:45;97595.84;;;2.88;100.00
30081;BME280;16902;50.816;12.828;2022-12-20T22:46:47;97597.75;;;2.86;100.00
30081;BME280;16902;50.816;12.828;2022-12-20T22:51:49;97597.47;;;2.89;100.00
30081;BME280;16902;50.816;12.828;2022-12-20T22:57:07;97595.84;;;2.97;100.00
30081;BME280;16902;50.816;12.828;2022-12-20T23:02:10;97595.69;;;2.99;100.00
30081;BME280;16902;50.816;12.828;2022-12-20T23:07:13;97589.19;;;2.95;100.00
30081;BME280;16902;50.816;12.828;2022-12-20T23:12:14;97585.00;;;2.94;100.00
30081;BME280;16902;50.816;12.828;2022-12-20T23:17:35;97580.41;;;2.88;100.00
30081;BME280;16902;50.816;12.828;2022-12-20T23:22:37;97596.78;;;3.06;100.00
30081;BME280;16902;50.816;12.828;2022-12-20T23:27:40;97587.44;;;3.15;100.00
30081;BME280;16902;50.816;12.828;2022-12-20T23:32:43;97576.88;;;2.98;100.00
30081;BME280;16902;50.816;12.828;2022-12-20T23:37:45;97570.53;;;2.93;100.00
30081;BME280;16902;50.816;12.828;2022-12-20T23:42:48;97565.53;;;2.81;100.00
30081;BME280;16902;50.816;12.828;2022-12-20T23:47:52;97572.03;;;2.95;100.00
30081;BME280;16902;50.816;12.828;2022-12-20T23:52:54;97570.78;;;3.09;100.00
30081;BME280;16902;50.816;12.828;2022-12-20T23:57:56;97572.03;;;3.15;100.00
